Time;durP1;ratioP1;P1;durP2;ratioP2;P2;SDS_P1;SDS_P2;PMS_P1;PMS_P2;Temp;Humidity;BMP_temperature;BMP_pressure;BME280_temperature;BME280_humidity;BME280_pressure;Samples;Min_cycle;Max_cycle;Signal;HPM_P1;HPM_P2
2021/05/03 00:00:37;;;;;;;12.33;10.30;;;3.50;99.90;;;;;;5080726;28;20293;-75
2021/05/03 00:03:05;;;;;;;14.37;11.83;;;3.40;99.90;;;;;;5080680;28;20278;-75
2021/05/03 00:05:33;;;;;;;15.60;11.87;;;3.30;99.90;;;;;;5071134;28;20206;-75
2021/05/03 00:08:00;;;;;;;13.97;11.33;;;3.30;99.90;;;;;;5070747;28;20646;-75
2021/05/03 00:10:26;;;;;;;13.07;11.27;;;3.30;99.90;;;;;;5070905;28;20235;-75
2021/05/03 00:12:53;;;;;;;15.23;11.23;;;3.30;99.90;;;;;;5074466;28;20753;-75
2021/05/03 00:15:20;;;;;;;15.67;11.60;;;3.30;99.90;;;;;;5081470;28;20284;-75
2021/05/03 00:17:46;;;;;;;12.87;10.57;;;3.40;99.90;;;;;;5079174;28;20285;-75
2021/05/03 00:20:13;;;;;;;12.90;10.60;;;3.40;99.90;;;;;;5074284;28;20289;-75
2021/05/03 00:22:39;;;;;;;13.40;10.57;;;3.40;99.90;;;;;;5078066;28;20289;-75
2021/05/03 00:25:08;;;;;;;13.60;10.73;;;3.40;99.90;;;;;;5092248;28;20306;-75
2021/05/03 00:27:35;;;;;;;12.80;10.23;;;3.40;99.90;;;;;;5094868;28;20640;-75
2021/05/03 00:30:01;;;;;;;14.27;10.63;;;3.40;99.90;;;;;;5094162;28;20289;-75
2021/05/03 00:32:29;;;;;;;13.70;10.87;;;3.30;99.90;;;;;;5090726;28;20296;-75
2021/05/03 00:34:55;;;;;;;13.23;10.37;;;3.10;99.90;;;;;;5077183;28;20279;-75
2021/05/03 00:37:22;;;;;;;13.20;10.80;;;3.00;99.90;;;;;;5074644;28;20342;-75
2021/05/03 00:39:48;;;;;;;13.97;11.30;;;2.90;99.90;;;;;;5083954;28;20633;-75
2021/05/03 00:42:15;;;;;;;12.43;10.80;;;2.90;99.90;;;;;;5085406;28;20229;-75
2021/05/03 00:44:42;;;;;;;15.00;11.37;;;2.90;99.90;;;;;;5094585;28;20283;-75
2021/05/03 00:47:09;;;;;;;13.13;10.97;;;2.90;99.90;;;;;;5092683;28;20208;-75
2021/05/03 00:49:35;;;;;;;14.07;11.37;;;2.90;99.90;;;;;;5077736;28;20745;-75
2021/05/03 00:52:02;;;;;;;12.70;10.03;;;2.90;99.90;;;;;;5086876;28;20235;-74
2021/05/03 00:54:29;;;;;;;13.37;10.70;;;2.80;99.90;;;;;;5094512;28;20236;-75
2021/05/03 00:56:55;;;;;;;14.00;11.17;;;2.70;99.90;;;;;;5075538;28;20572;-75
2021/05/03 00:59:23;;;;;;;15.67;11.13;;;2.70;99.90;;;;;;5094176;28;20292;-75
2021/05/03 01:01:49;;;;;;;15.47;11.87;;;2.60;99.90;;;;;;5075606;28;20287;-75
2021/05/03 01:04:16;;;;;;;14.40;11.37;;;2.60;99.90;;;;;;5089554;28;20322;-74
2021/05/03 01:06:42;;;;;;;15.17;11.23;;;2.50;99.90;;;;;;5090617;28;20383;-75
2021/05/03 01:09:09;;;;;;;15.53;11.13;;;2.50;99.90;;;;;;5093986;28;20292;-75
2021/05/03 01:11:37;;;;;;;15.13;11.80;;;2.50;99.90;;;;;;5087353;28;20216;-75
2021/05/03 01:14:04;;;;;;;13.87;11.23;;;2.50;99.90;;;;;;5080740;28;20232;-75
2021/05/03 01:16:31;;;;;;;13.90;11.03;;;2.50;99.90;;;;;;5090701;28;20255;-75
2021/05/03 01:18:58;;;;;;;16.13;12.37;;;2.40;99.90;;;;;;5085801;28;20199;-74
2021/05/03 01:21:26;;;;;;;13.93;11.23;;;2.40;99.90;;;;;;5087459;28;20231;-75
2021/05/03 01:23:53;;;;;;;14.57;11.00;;;2.40;99.90;;;;;;5093676;28;20364;-75
2021/05/03 01:26:20;;;;;;;14.00;11.10;;;2.40;99.90;;;;;;5087595;28;20781;-75
2021/05/03 01:28:47;;;;;;;17.57;11.53;;;2.30;99.90;;;;;;5073581;28;20285;-75
2021/05/03 01:31:14;;;;;;;16.20;11.77;;;2.30;99.90;;;;;;5064921;28;20296;-75
2021/05/03 01:33:41;;;;;;;15.00;11.40;;;2.40;99.90;;;;;;5073124;28;20323;-75
2021/05/03 01:36:08;;;;;;;14.20;11.10;;;2.50;99.90;;;;;;5080569;28;20309;-75
2021/05/03 01:38:36;;;;;;;15.33;11.90;;;2.60;99.90;;;;;;5092641;28;20290;-75
2021/05/03 01:41:03;;;;;;;14.83;11.50;;;2.50;99.90;;;;;;5092883;28;20303;-75
2021/05/03 01:43:30;;;;;;;15.47;11.57;;;2.50;99.90;;;;;;5091904;28;20290;-75
2021/05/03 01:45:58;;;;;;;14.47;11.43;;;2.50;99.90;;;;;;5083903;28;20207;-75
2021/05/03 01:48:26;;;;;;;13.67;10.80;;;2.50;99.90;;;;;;5090841;28;20256;-75
2021/05/03 01:50:54;;;;;;;17.23;11.63;;;2.50;99.90;;;;;;5052985;28;20322;-74
2021/05/03 01:53:21;;;;;;;14.27;11.63;;;2.30;99.90;;;;;;5070119;28;20356;-75
2021/05/03 01:55:50;;;;;;;14.00;10.93;;;2.20;99.90;;;;;;5072683;28;20314;-75
2021/05/03 01:58:17;;;;;;;14.40;11.47;;;2.20;99.90;;;;;;5087845;28;20203;-75
2021/05/03 02:00:43;;;;;;;15.70;10.93;;;2.10;99.90;;;;;;5090116;28;20282;-75
2021/05/03 02:03:18;;;;;;;14.43;11.17;;;2.00;99.90;;;;;;5076764;28;20274;-75
2021/05/03 02:05:44;;;;;;;14.50;11.50;;;1.90;99.90;;;;;;5076900;28;20200;-75
2021/05/03 02:08:10;;;;;;;16.23;11.97;;;1.90;99.90;;;;;;5073109;28;20234;-75
2021/05/03 02:10:37;;;;;;;14.80;12.00;;;1.90;99.90;;;;;;5072222;28;20283;-75
2021/05/03 02:13:05;;;;;;;16.53;12.33;;;2.00;99.90;;;;;;5072403;28;20211;-76
2021/05/03 02:15:33;;;;;;;16.53;11.93;;;1.90;99.90;;;;;;5074463;28;20285;-75
2021/05/03 02:18:00;;;;;;;15.47;11.57;;;1.90;99.90;;;;;;5071923;28;20303;-75
2021/05/03 02:20:26;;;;;;;14.57;11.73;;;1.70;99.90;;;;;;5072167;28;20742;-75
2021/05/03 02:22:53;;;;;;;14.80;11.67;;;1.70;99.90;;;;;;5072672;28;20239;-75
2021/05/03 02:25:20;;;;;;;16.63;12.10;;;1.60;99.90;;;;;;5072436;28;20278;-75
2021/05/03 02:27:46;;;;;;;18.50;11.73;;;1.70;99.90;;;;;;5070030;28;20302;-75
2021/05/03 02:30:16;;;;;;;15.23;11.47;;;1.70;99.90;;;;;;5072231;28;20231;-75
2021/05/03 02:32:43;;;;;;;17.87;12.60;;;1.70;99.90;;;;;;5076172;28;20707;-75
2021/05/03 02:35:13;;;;;;;15.37;12.50;;;1.70;99.90;;;;;;5080028;28;20798;-75
2021/05/03 02:37:39;;;;;;;15.80;12.50;;;1.80;99.90;;;;;;5072251;28;20204;-76
2021/05/03 02:40:07;;;;;;;15.53;12.43;;;1.90;99.90;;;;;;5071337;28;20227;-75
2021/05/03 02:42:34;;;;;;;17.03;11.43;;;2.00;99.90;;;;;;5073716;28;20282;-74
2021/05/03 02:45:01;;;;;;;15.80;11.53;;;2.00;99.90;;;;;;5080333;28;20290;-74
2021/05/03 02:47:28;;;;;;;15.93;11.33;;;2.00;99.90;;;;;;5085719;28;20897;-74
2021/05/03 02:49:55;;;;;;;14.90;11.93;;;1.80;99.90;;;;;;5083061;28;20238;-74
2021/05/03 02:52:21;;;;;;;16.03;11.97;;;1.80;99.90;;;;;;5072322;28;20290;-74
2021/05/03 02:54:47;;;;;;;15.83;11.30;;;1.60;99.90;;;;;;5079345;28;20738;-74
2021/05/03 02:57:14;;;;;;;15.07;11.63;;;1.50;99.90;;;;;;5080109;28;20714;-74
2021/05/03 02:59:40;;;;;;;14.63;11.10;;;1.50;99.90;;;;;;5085618;28;20655;-74
2021/05/03 03:02:08;;;;;;;14.73;11.63;;;1.40;99.90;;;;;;5077574;28;20290;-74
2021/05/03 03:04:35;;;;;;;15.07;11.30;;;1.30;99.90;;;;;;5087573;28;20355;-76
2021/05/03 03:07:01;;;;;;;16.80;11.50;;;1.20;99.90;;;;;;5091877;28;20195;-74
2021/05/03 03:09:28;;;;;;;14.80;11.73;;;1.10;99.90;;;;;;5088310;28;20306;-74
2021/05/03 03:11:55;;;;;;;15.30;11.87;;;1.10;99.90;;;;;;5091773;28;20702;-76
2021/05/03 03:14:21;;;;;;;16.30;12.20;;;1.10;99.90;;;;;;5090105;28;20248;-76
2021/05/03 03:16:48;;;;;;;16.50;11.80;;;1.10;99.90;;;;;;5073214;28;20313;-76
2021/05/03 03:19:14;;;;;;;15.40;11.93;;;1.10;99.90;;;;;;5080739;28;20195;-76
2021/05/03 03:21:42;;;;;;;15.33;12.17;;;1.10;99.90;;;;;;5078845;28;20190;-76
2021/05/03 03:24:09;;;;;;;16.20;12.20;;;1.10;99.90;;;;;;5091767;28;20297;-76
2021/05/03 03:26:35;;;;;;;16.00;12.10;;;1.00;99.90;;;;;;5073060;28;20278;-76
2021/05/03 03:29:02;;;;;;;17.47;12.20;;;1.00;99.90;;;;;;5080765;28;20622;-76
2021/05/03 03:31:29;;;;;;;15.80;12.50;;;1.00;99.90;;;;;;5084587;28;20355;-76
2021/05/03 03:33:55;;;;;;;17.20;12.97;;;1.10;99.90;;;;;;5085909;28;20311;-76
2021/05/03 03:36:21;;;;;;;15.80;12.30;;;1.10;99.90;;;;;;5076031;28;20317;-75
2021/05/03 03:38:49;;;;;;;16.57;12.67;;;1.10;99.90;;;;;;5076194;28;20730;-75
2021/05/03 03:41:15;;;;;;;16.30;12.40;;;1.20;99.90;;;;;;5073214;28;20210;-76
2021/05/03 03:43:42;;;;;;;16.77;12.80;;;1.20;99.90;;;;;;5075892;28;20230;-76
2021/05/03 03:46:08;;;;;;;15.87;12.00;;;1.20;99.90;;;;;;5082809;28;20284;-76
2021/05/03 03:48:35;;;;;;;15.73;11.83;;;1.20;99.90;;;;;;5071308;28;20671;-76
2021/05/03 03:51:01;;;;;;;14.77;12.17;;;1.20;99.90;;;;;;5076166;28;20558;-76
2021/05/03 03:53:27;;;;;;;16.07;13.00;;;1.20;99.90;;;;;;5087896;28;20226;-75
2021/05/03 03:55:55;;;;;;;18.83;13.20;;;1.20;99.90;;;;;;5095079;28;20266;-76
2021/05/03 03:58:21;;;;;;;17.30;12.50;;;1.20;99.90;;;;;;5090390;28;20282;-76
2021/05/03 04:00:47;;;;;;;17.10;12.20;;;1.20;99.90;;;;;;5075107;28;20720;-75
2021/05/03 04:03:14;;;;;;;17.33;12.43;;;1.10;99.90;;;;;;5082825;28;20198;-76
2021/05/03 04:06:00;;;;;;;17.57;12.83;;;1.10;99.90;;;;;;5075384;28;20244;-76
2021/05/03 04:08:31;;;;;;;17.63;13.37;;;1.10;99.90;;;;;;5077598;28;20290;-76
2021/05/03 04:11:06;;;;;;;18.97;14.00;;;1.10;99.90;;;;;;5087242;28;20275;-76
2021/05/03 04:21:52;;;;;;;15.90;12.33;;;1.10;99.90;;;;;;5075061;28;20198;-76
2021/05/03 04:24:22;;;;;;;16.73;12.63;;;0.90;99.90;;;;;;5074717;28;20199;-76
2021/05/03 04:26:50;;;;;;;17.87;12.67;;;0.90;99.90;;;;;;5087913;28;20230;-76
2021/05/03 04:29:16;;;;;;;14.97;11.77;;;0.80;99.90;;;;;;5094382;28;20281;-75
2021/05/03 04:31:42;;;;;;;16.87;12.83;;;0.70;99.90;;;;;;5080788;28;20343;-76
2021/05/03 04:34:09;;;;;;;16.90;12.40;;;0.80;99.90;;;;;;5086018;28;20223;-75
2021/05/03 04:36:35;;;;;;;15.43;12.47;;;0.70;99.90;;;;;;5086708;28;20311;-76
2021/05/03 04:39:02;;;;;;;18.40;13.03;;;0.70;99.90;;;;;;5077157;28;20254;-76
2021/05/03 04:41:29;;;;;;;17.17;12.87;;;0.80;99.90;;;;;;5074019;28;20295;-77
2021/05/03 04:43:56;;;;;;;15.90;12.43;;;0.80;99.90;;;;;;5083965;28;20282;-76
2021/05/03 04:46:22;;;;;;;15.80;12.00;;;0.80;99.90;;;;;;5089919;28;20281;-76
2021/05/03 04:48:49;;;;;;;16.67;12.30;;;0.80;99.90;;;;;;5094992;28;20289;-76
2021/05/03 04:51:16;;;;;;;16.37;12.77;;;0.80;99.90;;;;;;5088183;28;20553;-76
2021/05/03 04:53:42;;;;;;;16.17;12.50;;;0.80;99.90;;;;;;5077152;28;20286;-76
2021/05/03 04:56:09;;;;;;;17.10;12.83;;;0.90;99.90;;;;;;5074659;28;20318;-75
2021/05/03 04:58:35;;;;;;;16.93;13.13;;;0.90;99.90;;;;;;5086023;28;20561;-75
2021/05/03 05:01:02;;;;;;;18.10;12.73;;;0.90;99.90;;;;;;5078272;28;20217;-76
2021/05/03 05:03:29;;;;;;;16.47;13.03;;;0.90;99.90;;;;;;5084666;28;20285;-76
2021/05/03 05:05:55;;;;;;;17.53;13.60;;;0.90;99.90;;;;;;5082372;28;20231;-75
2021/05/03 05:08:23;;;;;;;17.47;13.20;;;1.00;99.90;;;;;;5083977;28;20245;-74
2021/05/03 05:10:50;;;;;;;18.37;13.93;;;1.00;99.90;;;;;;5094255;28;20289;-74
2021/05/03 05:13:16;;;;;;;19.53;13.87;;;1.00;99.90;;;;;;5088821;28;20298;-74
2021/05/03 05:15:42;;;;;;;20.53;13.43;;;1.00;99.90;;;;;;5074594;28;20739;-74
2021/05/03 05:18:11;;;;;;;17.47;13.57;;;1.00;99.90;;;;;;5075155;28;20282;-74
2021/05/03 05:20:37;;;;;;;17.43;13.10;;;1.00;99.90;;;;;;5073347;28;20345;-75
2021/05/03 05:23:05;;;;;;;17.73;13.20;;;1.00;99.90;;;;;;5073768;28;20290;-74
2021/05/03 05:25:31;;;;;;;18.03;13.90;;;1.10;99.90;;;;;;5073886;28;20202;-74
2021/05/03 05:27:58;;;;;;;18.30;13.90;;;1.20;99.90;;;;;;5086807;28;20297;-75
2021/05/03 05:30:24;;;;;;;17.50;14.03;;;1.50;99.90;;;;;;5091579;28;20315;-74
2021/05/03 05:32:51;;;;;;;18.17;13.73;;;1.70;99.90;;;;;;5073388;28;20199;-75
2021/05/03 05:35:18;;;;;;;16.37;12.73;;;1.90;99.90;;;;;;5091260;28;20237;-75
2021/05/03 05:37:44;;;;;;;16.23;12.43;;;2.20;99.90;;;;;;5081050;28;20279;-75
2021/05/03 05:40:11;;;;;;;15.97;12.60;;;2.50;99.90;;;;;;5072804;28;20296;-75
2021/05/03 05:42:38;;;;;;;17.83;12.93;;;3.00;99.90;;;;;;5072898;28;20739;-75
2021/05/03 05:45:05;;;;;;;14.17;11.50;;;3.40;99.90;;;;;;5092816;28;20228;-76
2021/05/03 05:47:32;;;;;;;16.97;11.13;;;3.80;99.90;;;;;;5082406;28;20294;-76
2021/05/03 05:49:58;;;;;;;13.20;10.77;;;4.10;99.90;;;;;;5083854;28;20195;-76
2021/05/03 05:52:26;;;;;;;15.17;10.60;;;4.40;99.90;;;;;;5083837;28;20241;-76
2021/05/03 05:54:52;;;;;;;12.07;10.50;;;4.90;99.90;;;;;;5078363;28;20199;-75
2021/05/03 05:57:19;;;;;;;13.43;10.80;;;5.40;99.90;;;;;;5086689;28;20216;-76
2021/05/03 05:59:45;;;;;;;13.10;10.97;;;5.90;99.90;;;;;;5077748;28;20292;-76
2021/05/03 06:02:11;;;;;;;14.00;11.27;;;6.60;99.90;;;;;;5070895;28;20295;-76
2021/05/03 06:04:39;;;;;;;11.87;10.43;;;7.10;99.90;;;;;;5079648;28;20198;-76
2021/05/03 06:07:05;;;;;;;11.17;9.93;;;7.80;99.90;;;;;;5083515;28;20276;-76
2021/05/03 06:09:32;;;;;;;12.23;11.00;;;8.00;99.90;;;;;;5089437;28;20293;-75
2021/05/03 06:11:59;;;;;;;11.60;9.63;;;8.70;99.90;;;;;;5084330;28;20334;-76
2021/05/03 06:14:25;;;;;;;13.23;10.33;;;8.90;99.90;;;;;;5092214;28;20208;-74
2021/05/03 06:16:52;;;;;;;14.27;10.23;;;9.20;99.90;;;;;;5093039;28;20276;-74
2021/05/03 06:19:18;;;;;;;11.67;10.47;;;9.70;99.90;;;;;;5092467;28;20274;-74
2021/05/03 06:21:44;;;;;;;12.20;10.53;;;10.10;99.90;;;;;;5074960;28;20206;-74
2021/05/03 06:24:11;;;;;;;11.30;10.20;;;10.20;99.90;;;;;;5072720;28;20722;-73
2021/05/03 06:26:38;;;;;;;9.97;9.07;;;10.50;99.90;;;;;;5073123;28;20332;-74
2021/05/03 06:29:04;;;;;;;10.70;9.60;;;11.00;99.90;;;;;;5087000;28;20195;-74
2021/05/03 06:31:36;;;;;;;10.70;9.70;;;11.20;99.90;;;;;;5077253;28;20305;-74
2021/05/03 06:34:03;;;;;;;11.37;10.27;;;11.20;99.90;;;;;;5081730;28;20700;-74
2021/05/03 06:36:29;;;;;;;11.30;10.13;;;11.60;99.90;;;;;;5078864;28;20637;-74
2021/05/03 06:38:58;;;;;;;10.73;9.47;;;11.80;99.90;;;;;;5073924;28;20738;-73
2021/05/03 06:41:24;;;;;;;10.30;9.40;;;11.60;99.90;;;;;;5076315;28;20206;-75
2021/05/03 06:43:51;;;;;;;11.10;10.00;;;12.10;99.90;;;;;;5073738;28;20349;-74
2021/05/03 06:46:18;;;;;;;10.80;9.80;;;12.20;99.90;;;;;;5078085;28;20236;-75
2021/05/03 06:48:44;;;;;;;12.00;10.37;;;12.30;99.90;;;;;;5081858;28;20289;-75
2021/05/03 06:51:10;;;;;;;12.07;10.97;;;12.40;99.90;;;;;;5077784;28;20199;-76
2021/05/03 06:53:37;;;;;;;12.00;10.90;;;12.60;99.90;;;;;;5070681;28;20602;-75
2021/05/03 06:56:04;;;;;;;13.03;11.73;;;13.40;99.90;;;;;;5084970;28;20776;-76
2021/05/03 06:58:30;;;;;;;12.87;11.57;;;13.60;99.90;;;;;;5079583;28;20203;-74
2021/05/03 07:00:58;;;;;;;15.70;12.33;;;13.90;99.90;;;;;;5082179;28;20203;-75
2021/05/03 07:03:24;;;;;;;11.70;10.50;;;14.80;99.90;;;;;;5075539;28;20756;-76
2021/05/03 07:05:50;;;;;;;12.10;10.93;;;15.40;99.90;;;;;;5082520;28;20197;-76
2021/05/03 07:08:22;;;;;;;11.52;10.38;;;16.00;99.90;;;;;;5072668;28;20199;-75
2021/05/03 07:10:48;;;;;;;10.65;9.63;;;15.40;99.90;;;;;;5088612;28;20201;-76
2021/05/03 07:13:14;;;;;;;17.17;11.18;;;16.40;99.90;;;;;;5078410;28;20307;-76
2021/05/03 07:15:41;;;;;;;12.98;11.68;;;16.60;99.90;;;;;;5084088;28;20218;-76
2021/05/03 07:18:10;;;;;;;13.90;11.52;;;16.50;99.90;;;;;;5076958;28;20309;-76
2021/05/03 07:20:36;;;;;;;14.90;11.32;;;17.10;99.90;;;;;;5082531;28;20278;-76
2021/05/03 07:23:06;;;;;;;12.52;10.77;;;17.20;99.90;;;;;;5089396;28;20205;-75
2021/05/03 07:25:34;;;;;;;13.00;11.63;;;17.50;99.90;;;;;;5075142;28;20348;-76
2021/05/03 07:28:00;;;;;;;13.13;11.02;;;17.60;99.90;;;;;;5085129;28;20198;-75
2021/05/03 07:30:26;;;;;;;11.63;10.52;;;18.30;99.90;;;;;;5078128;28;20236;-75
2021/05/03 07:32:55;;;;;;;12.35;10.18;;;18.50;99.90;;;;;;5086149;28;20799;-76
2021/05/03 07:35:22;;;;;;;10.07;9.15;;;19.40;99.90;;;;;;5084250;28;20731;-75
2021/05/03 07:37:49;;;;;;;11.57;10.00;;;21.00;99.90;;;;;;5080437;28;20213;-76
2021/05/03 07:40:16;;;;;;;18.90;9.32;;;20.70;99.90;;;;;;5073562;28;20285;-76
2021/05/03 07:42:42;;;;;;;9.27;8.40;;;19.50;99.70;;;;;;5084542;28;20630;-76
2021/05/03 07:45:11;;;;;;;11.60;9.10;;;17.30;99.90;;;;;;5079233;28;20203;-75
2021/05/03 07:47:38;;;;;;;9.10;8.30;;;17.30;99.90;;;;;;5072129;28;20234;-76
2021/05/03 07:50:05;;;;;;;9.73;8.27;;;19.50;99.90;;;;;;5087819;28;20285;-76
2021/05/03 07:52:33;;;;;;;9.65;8.75;;;20.30;99.90;;;;;;5076105;28;20340;-75
2021/05/03 07:55:00;;;;;;;9.95;9.00;;;20.10;98.20;;;;;;5079150;28;20194;-76
2021/05/03 07:57:26;;;;;;;9.75;8.75;;;19.90;98.40;;;;;;5088180;28;20249;-76
2021/05/03 07:59:53;;;;;;;9.88;8.80;;;20.80;98.40;;;;;;5089614;28;20249;-76
2021/05/03 08:02:19;;;;;;;9.65;8.27;;;20.80;98.20;;;;;;5086788;28;20282;-76
2021/05/03 08:04:46;;;;;;;13.27;8.93;;;21.20;96.60;;;;;;5079430;28;20221;-76
2021/05/03 08:07:12;;;;;;;10.30;9.02;;;21.10;94.20;;;;;;5077455;28;20282;-76
2021/05/03 08:09:39;;;;;;;10.57;9.57;;;19.10;99.00;;;;;;5078719;28;20703;-76
2021/05/03 08:12:08;;;;;;;10.30;9.50;;;19.40;98.20;;;;;;5067592;28;20671;-76
2021/05/03 08:14:35;;;;;;;10.38;9.32;;;19.40;97.70;;;;;;5078913;28;20195;-75
2021/05/03 08:17:05;;;;;;;10.23;9.32;;;18.90;99.90;;;;;;5073805;28;20215;-76
2021/05/03 08:19:32;;;;;;;10.77;9.68;;;20.80;99.90;;;;;;5069050;28;20317;-76
2021/05/03 08:22:00;;;;;;;12.10;9.55;;;22.20;99.70;;;;;;5085871;28;20560;-76
2021/05/03 08:24:27;;;;;;;11.52;10.43;;;20.70;95.10;;;;;;5086947;28;20197;-76
2021/05/03 08:26:55;;;;;;;11.07;10.00;;;21.40;96.40;;;;;;5071347;28;20632;-76
2021/05/03 08:29:22;;;;;;;10.35;9.45;;;22.40;97.70;;;;;;5079989;28;20290;-76
2021/05/03 08:31:48;;;;;;;9.55;8.68;;;22.40;97.60;;;;;;5076620;28;20302;-77
2021/05/03 08:34:15;;;;;;;9.15;8.35;;;22.60;93.10;;;;;;5070370;28;20313;-76
2021/05/03 08:36:41;;;;;;;9.35;8.35;;;23.00;93.60;;;;;;5072066;28;20519;-76
2021/05/03 08:39:08;;;;;;;10.98;8.73;;;22.40;89.90;;;;;;5088051;28;20198;-76
2021/05/03 08:41:35;;;;;;;8.80;7.90;;;22.40;92.10;;;;;;5083267;28;20297;-76
2021/05/03 08:44:05;;;;;;;8.70;7.72;;;23.60;90.80;;;;;;5085102;28;20225;-76
2021/05/03 08:46:33;;;;;;;9.07;7.90;;;24.00;85.70;;;;;;5077506;28;20223;-77
2021/05/03 08:49:04;;;;;;;8.90;8.10;;;23.50;80.90;;;;;;5073236;28;20676;-76
2021/05/03 08:51:45;;;;;;;8.60;7.40;;;21.90;85.80;;;;;;5082190;28;20199;-76
2021/05/03 08:54:18;;;;;;;8.60;7.45;;;22.00;85.60;;;;;;5077538;28;20650;-76
2021/05/03 08:56:47;;;;;;;9.05;8.15;;;22.60;83.00;;;;;;5069547;28;20237;-76
2021/05/03 08:59:14;;;;;;;6.95;6.32;;;19.90;88.10;;;;;;5077062;28;20619;-76
2021/05/03 09:01:45;;;;;;;7.55;6.85;;;20.50;90.60;;;;;;5092275;28;20634;-76
2021/05/03 09:04:13;;;;;;;5.55;5.05;;;22.60;86.40;;;;;;5090155;28;20339;-76
2021/05/03 09:06:39;;;;;;;6.38;5.57;;;23.80;79.10;;;;;;5072299;28;20195;-76
2021/05/03 09:09:07;;;;;;;7.88;7.07;;;22.70;78.50;;;;;;5077214;28;20248;-75
2021/05/03 09:11:35;;;;;;;7.07;6.45;;;20.50;80.00;;;;;;5084071;28;20808;-75
2021/05/03 09:14:10;;;;;;;7.07;6.38;;;21.80;81.60;;;;;;5072341;28;20599;-75
2021/05/03 09:16:46;;;;;;;7.57;6.35;;;22.70;83.70;;;;;;5070251;28;20226;-75
2021/05/03 09:19:14;;;;;;;7.63;6.85;;;23.20;80.50;;;;;;5067653;28;20198;-75
2021/05/03 09:21:41;;;;;;;7.45;6.75;;;22.40;74.60;;;;;;5072749;28;20206;-75
2021/05/03 09:24:12;;;;;;;6.88;6.25;;;22.60;81.20;;;;;;5069283;28;20203;-74
2021/05/03 09:26:44;;;;;;;7.10;6.50;;;23.80;80.00;;;;;;5070921;28;20195;-74
2021/05/03 09:29:30;;;;;;;7.22;6.53;;;23.50;76.70;;;;;;5072148;28;20198;-75
2021/05/03 09:32:06;;;;;;;7.38;6.60;;;23.50;75.90;;;;;;5072435;28;20286;-75
2021/05/03 09:34:35;;;;;;;6.63;6.03;;;23.60;77.50;;;;;;5074619;28;20229;-74
2021/05/03 09:37:29;;;;;;;8.07;7.28;;;23.90;74.60;;;;;;5059148;28;20295;-74
2021/05/03 09:40:01;;;;;;;7.50;6.80;;;23.00;74.00;;;;;;5077018;28;20202;-75
2021/05/03 09:42:49;;;;;;;7.35;6.63;;;21.50;77.80;;;;;;5077304;28;20205;-74
2021/05/03 09:45:18;;;;;;;7.60;6.90;;;22.30;78.40;;;;;;5076205;28;20230;-75
2021/05/03 09:47:46;;;;;;;7.45;6.85;;;23.90;75.10;;;;;;5079199;28;20356;-75
2021/05/03 09:50:14;;;;;;;6.63;6.13;;;24.50;71.30;;;;;;5082354;28;20210;-75
2021/05/03 09:53:00;;;;;;;7.38;6.68;;;25.10;73.70;;;;;;5079376;28;20278;-75
2021/05/03 09:55:48;;;;;;;6.40;5.80;;;25.10;69.60;;;;;;5086892;28;20312;-74
2021/05/03 09:58:17;;;;;;;6.57;5.93;;;25.20;66.50;;;;;;5079248;28;20206;-75
2021/05/03 10:00:45;;;;;;;7.28;6.60;;;23.30;66.00;;;;;;5078708;28;20207;-75
2021/05/03 10:03:31;;;;;;;7.07;6.45;;;21.30;69.60;;;;;;5081952;28;20203;-75
2021/05/03 10:05:58;;;;;;;8.18;7.43;;;22.90;75.00;;;;;;5078257;28;20222;-74
2021/05/03 10:08:24;;;;;;;8.13;7.43;;;21.30;71.20;;;;;;5080717;28;20285;-74
2021/05/03 10:10:53;;;;;;;7.97;7.18;;;19.50;78.90;;;;;;5078233;28;20321;-75
2021/05/03 10:13:20;;;;;;;8.15;7.35;;;21.30;81.40;;;;;;5079160;28;20242;-75
2021/05/03 10:15:47;;;;;;;6.35;5.75;;;22.60;74.90;;;;;;5079004;28;20203;-74
2021/05/03 10:18:18;;;;;;;6.35;5.65;;;21.00;68.60;;;;;;5082909;28;20244;-74
2021/05/03 10:20:46;;;;;;;6.85;6.25;;;20.80;72.50;;;;;;5083793;28;20198;-74
2021/05/03 10:23:14;;;;;;;6.88;6.18;;;20.30;75.60;;;;;;5076601;28;20203;-75
2021/05/03 10:25:41;;;;;;;7.53;6.72;;;21.70;75.80;;;;;;5074222;28;20566;-75
2021/05/03 10:28:08;;;;;;;7.40;6.60;;;23.60;75.10;;;;;;5079402;28;20199;-74
2021/05/03 10:30:42;;;;;;;6.35;5.72;;;24.60;70.20;;;;;;5072664;28;20234;-75
2021/05/03 10:33:10;;;;;;;6.75;5.47;;;24.60;67.80;;;;;;5085319;28;20237;-74
2021/05/03 10:35:39;;;;;;;6.10;5.50;;;21.70;65.40;;;;;;5074870;28;20329;-74
2021/05/03 10:38:22;;;;;;;5.80;5.30;;;19.90;71.00;;;;;;5074766;28;20985;-74
2021/05/03 10:40:50;;;;;;;5.18;4.68;;;19.70;72.00;;;;;;5070753;28;20301;-74
2021/05/03 10:43:27;;;;;;;4.75;4.32;;;21.20;69.30;;;;;;5079211;28;20233;-74
2021/05/03 10:46:15;;;;;;;10.77;5.90;;;22.70;66.20;;;;;;5075409;28;20194;-74
2021/05/03 10:48:49;;;;;;;7.72;5.72;;;19.90;70.60;;;;;;5088529;28;20203;-74
2021/05/03 10:51:36;;;;;;;6.43;5.82;;;18.70;74.00;;;;;;5086468;28;20289;-74
2021/05/03 10:54:37;;;;;;;6.55;5.88;;;18.90;77.90;;;;;;5081584;28;20706;-74
2021/05/03 10:57:05;;;;;;;6.35;5.80;;;18.20;79.00;;;;;;5087196;28;20214;-74
2021/05/03 10:59:47;;;;;;;7.43;6.57;;;18.40;79.80;;;;;;5078257;28;20290;-74
2021/05/03 11:02:18;;;;;;;6.68;5.97;;;18.90;78.20;;;;;;5086227;28;20233;-74
2021/05/03 11:05:10;;;;;;;7.35;6.65;;;19.00;81.20;;;;;;5077139;28;20360;-74
2021/05/03 11:08:30;;;;;;;6.35;5.75;;;20.30;73.80;;;;;;5078018;28;20229;-74
2021/05/03 11:11:04;;;;;;;6.22;5.22;;;20.20;73.90;;;;;;5071902;28;20199;-74
2021/05/03 11:14:01;;;;;;;7.88;5.47;;;20.10;76.60;;;;;;5060617;28;20672;-74
2021/05/03 11:16:56;;;;;;;5.95;5.35;;;21.10;71.00;;;;;;5088474;28;20258;-74
2021/05/03 11:22:20;;;;;;;6.85;5.47;;;18.70;70.10;;;;;;5070071;28;20826;-74
2021/05/03 11:24:50;;;;;;;6.30;5.70;;;18.30;76.40;;;;;;5078556;28;20201;-74
2021/05/03 11:27:23;;;;;;;5.55;5.05;;;20.20;72.30;;;;;;5082803;28;20206;-74
2021/05/03 11:29:56;;;;;;;8.88;5.63;;;21.70;76.10;;;;;;5075837;28;20194;-74
2021/05/03 11:32:30;;;;;;;5.53;4.75;;;21.10;67.00;;;;;;5080680;28;20222;-74
2021/05/03 11:35:02;;;;;;;5.95;4.82;;;19.20;74.20;;;;;;5079794;28;20222;-74
2021/05/03 11:37:40;;;;;;;7.78;4.82;;;20.10;70.40;;;;;;5077752;28;20265;-74
2021/05/03 11:40:15;;;;;;;7.90;4.88;;;22.10;70.30;;;;;;5078767;28;20224;-74
2021/05/03 11:43:05;;;;;;;5.65;5.15;;;22.30;65.80;;;;;;5077482;28;20195;-74
2021/05/03 11:45:32;;;;;;;7.60;4.80;;;20.50;66.90;;;;;;5082218;28;20278;-74
2021/05/03 11:48:00;;;;;;;5.72;5.13;;;20.10;71.70;;;;;;5080850;28;20273;-73
2021/05/03 11:50:28;;;;;;;6.15;4.95;;;20.00;72.70;;;;;;5082021;28;20282;-74
2021/05/03 11:53:02;;;;;;;6.30;5.50;;;20.90;69.90;;;;;;5081106;28;20195;-74
2021/05/03 11:55:29;;;;;;;5.70;5.20;;;19.50;70.70;;;;;;5073055;28;20205;-74
2021/05/03 11:57:58;;;;;;;5.80;5.28;;;20.60;73.60;;;;;;5079027;28;20349;-74
2021/05/03 12:00:26;;;;;;;5.70;5.10;;;22.30;67.90;;;;;;5059748;28;20206;-74
2021/05/03 12:03:05;;;;;;;7.38;5.80;;;21.90;69.20;;;;;;5069744;28;20222;-74
2021/05/03 12:05:32;;;;;;;6.35;5.65;;;21.50;67.10;;;;;;5079410;28;20198;-74
2021/05/03 12:08:12;;;;;;;6.43;5.30;;;22.20;71.80;;;;;;5086974;28;20243;-74
2021/05/03 12:10:38;;;;;;;6.22;5.07;;;20.80;70.90;;;;;;5070418;28;20195;-73
2021/05/03 12:13:12;;;;;;;6.63;5.63;;;20.90;70.50;;;;;;5081087;28;20223;-74
2021/05/03 12:15:39;;;;;;;6.13;5.47;;;20.50;74.00;;;;;;5073236;28;20232;-74
2021/05/03 12:18:05;;;;;;;7.53;5.65;;;21.30;71.60;;;;;;5078626;28;20250;-74
2021/05/03 12:20:34;;;;;;;6.25;5.50;;;21.90;74.40;;;;;;5081787;28;20282;-74
2021/05/03 12:23:02;;;;;;;6.55;5.93;;;21.80;73.40;;;;;;5081551;28;20290;-74
2021/05/03 12:25:37;;;;;;;6.78;6.07;;;20.90;71.20;;;;;;5078381;28;20631;-74
2021/05/03 12:28:09;;;;;;;6.70;5.68;;;20.10;75.70;;;;;;5075905;28;20201;-74
2021/05/03 12:30:36;;;;;;;6.30;5.80;;;21.00;72.70;;;;;;5092840;28;20226;-74
2021/05/03 12:33:08;;;;;;;6.45;5.85;;;21.30;72.30;;;;;;5083838;28;20209;-74
2021/05/03 12:35:35;;;;;;;6.15;5.55;;;21.00;72.30;;;;;;5069713;28;20293;-74
2021/05/03 12:38:14;;;;;;;6.20;5.63;;;20.70;72.90;;;;;;5086088;28;20246;-74
2021/05/03 12:40:41;;;;;;;6.25;5.65;;;20.50;74.40;;;;;;5083065;28;20298;-74
2021/05/03 12:43:08;;;;;;;5.45;4.95;;;19.80;73.40;;;;;;5083930;28;20278;-74
2021/05/03 12:45:49;;;;;;;7.45;5.22;;;20.70;74.30;;;;;;5086880;28;20205;-74
2021/05/03 12:48:25;;;;;;;6.18;5.55;;;20.80;73.70;;;;;;5081459;28;20662;-74
2021/05/03 12:53:57;;;;;;;8.45;5.00;;;20.70;76.30;;;;;;5081744;28;20205;-74
2021/05/03 12:56:30;;;;;;;6.65;5.30;;;20.00;75.70;;;;;;5085439;28;20219;-74
2021/05/03 12:59:15;;;;;;;6.05;4.95;;;19.00;76.40;;;;;;5083906;28;20199;-73
2021/05/03 13:01:46;;;;;;;5.10;4.18;;;19.00;78.90;;;;;;5081514;28;20681;-75
2021/05/03 13:04:37;;;;;;;5.70;5.20;;;19.90;80.60;;;;;;5082593;28;20207;-74